Central Il Rgnl Arpt at Bloomington-Normal Airport
KBMI : now visible

Airfield :











YOU CAN JOIN US ON...

 
LOGIN :

Register | Disclaimer

   EN    FR    IT 

 









Legend :    VFR   Marginal VFR   IFR   Intensive IFR   Very Intensive IFR
Visi :
Ceiling :
>= 8 km
>= 3000ft
5 to 8 km
1000 to 3000 ft
1500m to 5 km
500 to 1000 ft
800 to 1500m
200 to 500 ft
< 800m
< 200 ft
Symbols :   Thunderstorms  Fog  Heavy snow  Heavy precipitations  Wind > 20 kt






- Airport Elevation : 871 ft
- IATA code : BMI


KBMI - Central Il Rgnl Arpt at Bloomington-Normal

CURRENT METAR :
  • 251856Z 08020KT 10SM SCT042 BKN049 OVC060 01/M04 A2982 RMK AO2 PK WND 07030/1820 SLP104 T00061039

EXPIRED METARs :
  • 251756Z 08021G28KT 10SM SCT055 OVC085 01/M04 A2987 RMK AO2 PK WND 07030/1729 UPB11E14SNE11 SLP121 P0000 60000 T00111039 10011 21017 58035
  • 251656Z COR 07021G26KT 9SM -SN FEW016 OVC036 00/M03 A2995 RMK AO2 PK WND 07026/1656 SLP149 P0000 T00001028

TAF KBMI
Valid from the 25 at 18:00 until the 26 at 18:00 UTC


251738Z 2518/2618 07016KT 6SM -SN BR OVC025
FM252200 07017G27KT 6SM -FZRASN BR OVC016
FM260000 07019G28KT 3SM -FZRASN BR OVC008
FM260700 06013G21KT P6SM OVC005
FM261400 03009KT 4SM -SN OVC004
KZAU FIR / North America



MET'MAP, your aeronautical weather chart ! - Copyright ORBIFLY December 2007 - Disclaimer

ORBIFLY MET'MAP TEAM :

Programming & Development : Alexandra Zaïnal
Concept & original design : Baudouin d'Aumeries
Assistance for programming : Marc-Olivier Méhu
Technical & hardware support : Manuel Goepfert

Contact : metmap@orbifly.com




SOURCES & CREDITS :

   NOAA       Earth
Advisory